Reid, Mississippi
Current Conditions -  °F | °C
As of 8:53 PM on Thursday 27 Nov 2014 (Local Time) from KTUP Reporting Station
Clear Clear  
Wind Chill: -4°   Ceiling: Unl
Heat Index: -1°   Visibility: 10mi
Dew Point: -3°   Wind: 6mph
Humidity: 82%   Direction: 30°NNE
Pressure: 30.5"   Gusts: NA
Location:  33.9472°N, 89.1968°W
Report Text: KTUP 280253Z 03005KT 10SM CLR M01/M03 A3050 RMK AO2 SLP329 T10061033 53007 $
Loading
Personal Weather Stations






























Interactive Weather Map New forecast layout! Learn more

10-Day Weather Forecast

Advertisements
Track Severe Weather on mobile